Time;durP1;ratioP1;P1;durP2;ratioP2;P2;SDS_P1;SDS_P2;PMS_P1;PMS_P2;Temp;Humidity;BMP_temperature;BMP_pressure;BME280_temperature;BME280_humidity;BME280_pressure;Samples;Min_cycle;Max_cycle;Signal;HPM_P1;HPM_P2
2023/11/04 00:01:03;;;;;;;;;;;7.30;99.90;;;;;;5050286;28;19913;-77
2023/11/04 00:03:29;;;;;;;;;;;7.30;99.90;;;;;;5053016;28;20055;-77
2023/11/04 00:05:55;;;;;;;;;;;7.30;99.90;;;;;;5052615;28;19912;-77
2023/11/04 00:08:21;;;;;;;;;;;7.30;99.90;;;;;;5053048;28;20399;-77
2023/11/04 00:10:49;;;;;;;;;;;7.30;99.90;;;;;;5056431;28;19909;-77
2023/11/04 00:13:15;;;;;;;;;;;7.40;99.90;;;;;;5056907;28;19931;-76
2023/11/04 00:15:42;;;;;;;;;;;7.30;99.90;;;;;;5055722;28;20357;-76
2023/11/04 00:18:07;;;;;;;;;;;7.30;99.90;;;;;;5056694;28;20459;-77
2023/11/04 00:20:33;;;;;;;;;;;7.30;99.90;;;;;;5055531;28;19980;-77
2023/11/04 00:22:58;;;;;;;;;;;7.30;99.90;;;;;;5056293;28;19948;-76
2023/11/04 00:25:24;;;;;;;;;;;7.40;99.90;;;;;;5054708;28;19915;-77
2023/11/04 00:27:49;;;;;;;;;;;7.50;99.90;;;;;;5056379;28;20300;-76
2023/11/04 00:30:15;;;;;;;;;;;7.20;99.90;;;;;;5055654;28;19905;-76
2023/11/04 00:32:41;;;;;;;;;;;7.20;99.90;;;;;;5055834;28;19908;-76
2023/11/04 00:35:06;;;;;;;;;;;7.20;99.90;;;;;;5037971;28;19912;-76
2023/11/04 00:37:32;;;;;;;;;;;7.20;99.90;;;;;;5038745;28;19915;-77
2023/11/04 00:40:00;;;;;;;;;;;7.10;99.90;;;;;;5056165;28;19962;-77
2023/11/04 00:42:26;;;;;;;;;;;7.20;99.90;;;;;;5038383;28;19916;-76
2023/11/04 00:44:52;;;;;;;;;;;7.10;99.90;;;;;;5039039;28;19905;-77
2023/11/04 00:47:17;;;;;;;;;;;7.10;99.90;;;;;;5056677;28;19905;-76
2023/11/04 00:49:43;;;;;;;;;;;7.00;99.90;;;;;;5056576;28;19904;-77
2023/11/04 00:52:10;;;;;;;;;;;7.00;99.90;;;;;;5056441;28;19916;-76
2023/11/04 00:54:37;;;;;;;;;;;7.00;99.90;;;;;;5055174;28;20007;-77
2023/11/04 00:57:03;;;;;;;;;;;7.00;99.90;;;;;;5038465;28;19909;-76
2023/11/04 00:59:28;;;;;;;;;;;7.10;99.90;;;;;;5055958;28;19905;-77
2023/11/04 01:01:54;;;;;;;;;;;7.00;99.90;;;;;;5038146;28;19944;-76
2023/11/04 01:04:19;;;;;;;;;;;7.00;99.90;;;;;;5055730;28;19905;-76
2023/11/04 01:06:45;;;;;;;;;;;6.90;99.90;;;;;;5038247;28;19916;-76
2023/11/04 01:09:12;;;;;;;;;;;7.00;99.90;;;;;;5054322;28;19913;-75
2023/11/04 01:11:37;;;;;;;;;;;7.10;99.90;;;;;;5037337;28;20003;-76
2023/11/04 01:14:03;;;;;;;;;;;7.00;99.90;;;;;;5054757;28;19944;-77
2023/11/04 01:16:29;;;;;;;;;;;7.00;99.90;;;;;;5038162;28;20453;-76
2023/11/04 01:18:54;;;;;;;;;;;7.10;99.90;;;;;;5055593;28;19995;-76
2023/11/04 01:21:20;;;;;;;;;;;7.30;99.90;;;;;;5036685;28;19952;-76
2023/11/04 01:23:45;;;;;;;;;;;7.20;99.90;;;;;;5054247;28;19905;-76
2023/11/04 01:26:11;;;;;;;;;;;7.30;99.90;;;;;;5055626;28;19909;-76
2023/11/04 01:28:36;;;;;;;;;;;7.30;99.90;;;;;;5055551;28;19951;-77
2023/11/04 01:31:03;;;;;;;;;;;7.40;99.90;;;;;;5054872;28;19914;-77
2023/11/04 01:33:29;;;;;;;;;;;7.40;99.90;;;;;;5037003;28;19912;-76
2023/11/04 01:35:55;;;;;;;;;;;7.30;99.90;;;;;;5056258;28;19911;-75
2023/11/04 01:38:20;;;;;;;;;;;7.40;99.90;;;;;;5052523;28;20004;-76
2023/11/04 01:40:50;;;;;;;;;;;7.40;99.90;;;;;;5052655;28;20385;-76
2023/11/04 01:43:25;;;;;;;;;;;7.40;99.90;;;;;;5034589;28;19909;-76
2023/11/04 01:46:09;;;;;;;;;;;7.40;99.90;;;;;;5034632;28;19908;-76
2023/11/04 01:48:35;;;;;;;;;;;7.50;99.90;;;;;;5035060;28;19909;-76
2023/11/04 01:51:03;;;;;;;;;;;7.50;99.90;;;;;;5035086;28;19919;-76
2023/11/04 01:53:29;;;;;;;;;;;7.60;99.90;;;;;;5053717;28;19905;-76
2023/11/04 01:55:55;;;;;;;;;;;7.70;99.90;;;;;;5053744;28;19919;-77
2023/11/04 01:58:20;;;;;;;;;;;7.60;99.90;;;;;;5053638;28;19905;-76
2023/11/04 02:00:46;;;;;;;;;;;7.60;99.90;;;;;;5053113;28;19935;-75
2023/11/04 02:03:12;;;;;;;;;;;7.60;99.90;;;;;;5053247;28;19912;-76
2023/11/04 02:05:38;;;;;;;;;;;7.70;99.90;;;;;;5053189;28;19978;-75
2023/11/04 02:08:03;;;;;;;;;;;7.80;99.90;;;;;;5053784;28;19917;-76
2023/11/04 02:10:29;;;;;;;;;;;7.80;99.90;;;;;;5052979;28;19971;-76
2023/11/04 02:12:55;;;;;;;;;;;7.80;99.90;;;;;;5053920;28;20372;-75
2023/11/04 02:15:20;;;;;;;;;;;7.70;99.90;;;;;;5053407;28;19908;-76
2023/11/04 02:17:46;;;;;;;;;;;7.80;99.90;;;;;;5053821;28;19931;-76
2023/11/04 02:20:13;;;;;;;;;;;7.80;99.90;;;;;;5053739;28;20356;-76
2023/11/04 02:22:39;;;;;;;;;;;7.90;99.90;;;;;;5053731;28;19908;-76
2023/11/04 02:25:05;;;;;;;;;;;7.80;99.90;;;;;;5050985;28;20288;-76
2023/11/04 02:27:31;;;;;;;;;;;7.90;99.90;;;;;;5053064;28;19909;-76
2023/11/04 02:29:57;;;;;;;;;;;7.90;99.90;;;;;;5053655;28;20010;-76
2023/11/04 02:32:22;;;;;;;;;;;7.90;99.90;;;;;;5052970;28;19908;-75
2023/11/04 02:34:48;;;;;;;;;;;8.00;99.90;;;;;;5052483;28;19968;-76
2023/11/04 02:37:13;;;;;;;;;;;8.00;99.90;;;;;;5034874;28;19968;-75
2023/11/04 02:39:39;;;;;;;;;;;8.00;99.90;;;;;;5052311;28;20373;-77
2023/11/04 02:42:04;;;;;;;;;;;8.10;99.90;;;;;;5051171;28;19924;-76
2023/11/04 02:44:30;;;;;;;;;;;8.10;99.90;;;;;;5053021;28;19909;-76
2023/11/04 02:46:57;;;;;;;;;;;8.10;99.90;;;;;;5053365;28;19912;-76
2023/11/04 02:49:23;;;;;;;;;;;8.10;99.90;;;;;;5051949;28;19980;-76
2023/11/04 02:51:48;;;;;;;;;;;8.00;99.90;;;;;;5051580;28;19909;-76
2023/11/04 02:54:14;;;;;;;;;;;8.00;99.90;;;;;;5053451;28;19979;-75
2023/11/04 02:56:39;;;;;;;;;;;8.00;99.90;;;;;;5053135;28;19905;-75
2023/11/04 02:59:05;;;;;;;;;;;7.90;99.90;;;;;;5052693;28;20003;-76
2023/11/04 03:01:30;;;;;;;;;;;8.00;99.90;;;;;;5053559;28;19913;-76
2023/11/04 03:03:58;;;;;;;;;;;8.00;99.90;;;;;;5053519;28;19909;-76
2023/11/04 03:06:23;;;;;;;;;;;8.00;99.90;;;;;;5058549;28;19904;-77
2023/11/04 03:08:50;;;;;;;;;;;8.00;99.90;;;;;;5064316;28;19912;-76
2023/11/04 03:11:15;;;;;;;;;;;8.00;99.90;;;;;;5062416;28;19917;-76
2023/11/04 03:13:41;;;;;;;;;;;7.90;99.90;;;;;;5053740;28;19915;-76
2023/11/04 03:16:07;;;;;;;;;;;8.00;99.90;;;;;;5054007;28;20373;-76
2023/11/04 03:18:32;;;;;;;;;;;7.90;99.90;;;;;;5060791;28;19959;-76
2023/11/04 03:20:58;;;;;;;;;;;7.90;99.90;;;;;;5054907;28;19943;-75
2023/11/04 03:23:24;;;;;;;;;;;7.90;99.90;;;;;;5073718;28;19989;-76
2023/11/04 03:25:49;;;;;;;;;;;8.00;99.90;;;;;;5054689;28;20326;-76
2023/11/04 03:28:15;;;;;;;;;;;8.00;99.90;;;;;;5055340;28;20438;-76
2023/11/04 03:30:40;;;;;;;;;;;8.00;99.90;;;;;;5074198;28;19916;-76
2023/11/04 03:33:06;;;;;;;;;;;8.20;99.90;;;;;;5073720;28;19915;-76
2023/11/04 03:35:31;;;;;;;;;;;8.10;99.90;;;;;;5073541;28;19904;-76
2023/11/04 03:37:57;;;;;;;;;;;8.10;99.90;;;;;;5073499;28;19905;-77
2023/11/04 03:40:22;;;;;;;;;;;8.10;99.90;;;;;;5074680;28;19909;-78
2023/11/04 03:42:48;;;;;;;;;;;8.10;99.90;;;;;;5072765;28;19962;-76
2023/11/04 03:45:14;;;;;;;;;;;8.00;99.90;;;;;;5075114;28;19989;-76
2023/11/04 03:47:40;;;;;;;;;;;8.00;99.90;;;;;;5076734;28;19911;-76
2023/11/04 03:50:06;;;;;;;;;;;8.00;99.90;;;;;;5074745;28;20380;-76
2023/11/04 03:52:32;;;;;;;;;;;7.90;99.90;;;;;;5074816;28;19904;-76
2023/11/04 03:54:57;;;;;;;;;;;8.00;99.90;;;;;;5075234;28;19904;-75
2023/11/04 03:57:23;;;;;;;;;;;7.90;99.90;;;;;;5075059;28;19950;-76
2023/11/04 03:59:48;;;;;;;;;;;7.90;99.90;;;;;;5075171;28;19949;-76
2023/11/04 04:02:14;;;;;;;;;;;7.80;99.90;;;;;;5056985;28;19928;-76
2023/11/04 04:04:39;;;;;;;;;;;7.70;99.90;;;;;;5075321;28;19905;-75
2023/11/04 04:07:05;;;;;;;;;;;7.80;99.90;;;;;;5074966;28;19964;-76
2023/11/04 04:09:32;;;;;;;;;;;7.80;99.90;;;;;;5075113;28;19911;-77
2023/11/04 04:11:58;;;;;;;;;;;7.90;99.90;;;;;;5074920;28;19944;-76
2023/11/04 04:14:23;;;;;;;;;;;7.90;99.90;;;;;;5075117;28;20615;-76
2023/11/04 04:16:49;;;;;;;;;;;7.90;99.90;;;;;;5074955;28;20296;-76
2023/11/04 04:19:14;;;;;;;;;;;7.90;99.90;;;;;;5075083;28;20380;-76
2023/11/04 04:21:40;;;;;;;;;;;8.00;99.90;;;;;;5074580;28;19916;-76
2023/11/04 04:24:06;;;;;;;;;;;8.10;99.90;;;;;;5056586;28;20431;-76
2023/11/04 04:26:31;;;;;;;;;;;8.10;99.90;;;;;;5040393;28;20327;-76
2023/11/04 04:28:57;;;;;;;;;;;8.10;99.90;;;;;;5074809;28;20514;-76
2023/11/04 04:31:23;;;;;;;;;;;8.10;99.90;;;;;;5057011;28;19905;-75
2023/11/04 04:33:49;;;;;;;;;;;8.10;99.90;;;;;;5074852;28;19936;-77
2023/11/04 04:36:15;;;;;;;;;;;8.10;99.90;;;;;;5075243;28;19912;-75
2023/11/04 04:38:40;;;;;;;;;;;8.10;99.90;;;;;;5075001;28;19963;-76
2023/11/04 04:41:06;;;;;;;;;;;8.10;99.90;;;;;;5056647;28;19916;-75
2023/11/04 04:43:33;;;;;;;;;;;8.10;99.90;;;;;;5075045;28;20300;-76
2023/11/04 04:45:59;;;;;;;;;;;8.00;99.90;;;;;;5075124;28;19908;-76
2023/11/04 04:48:25;;;;;;;;;;;8.00;99.90;;;;;;5074549;28;19916;-76
2023/11/04 04:50:50;;;;;;;;;;;8.00;99.90;;;;;;5074966;28;19908;-76
2023/11/04 04:53:16;;;;;;;;;;;8.10;99.90;;;;;;5074936;28;19909;-77
2023/11/04 04:55:41;;;;;;;;;;;8.10;99.90;;;;;;5075122;28;20568;-76
2023/11/04 04:58:07;;;;;;;;;;;8.20;99.90;;;;;;5074787;28;19951;-76
2023/11/04 05:00:32;;;;;;;;;;;8.20;99.90;;;;;;5074884;28;19943;-75
2023/11/04 05:02:59;;;;;;;;;;;8.20;99.90;;;;;;5074428;28;19915;-76
2023/11/04 05:05:24;;;;;;;;;;;8.20;99.90;;;;;;5074866;28;19984;-76
2023/11/04 05:07:50;;;;;;;;;;;8.20;99.90;;;;;;5075010;28;19905;-76
2023/11/04 05:10:15;;;;;;;;;;;8.20;99.90;;;;;;5074624;28;19991;-75
2023/11/04 05:12:41;;;;;;;;;;;8.20;99.90;;;;;;5075061;28;20436;-76
2023/11/04 05:15:08;;;;;;;;;;;8.30;99.90;;;;;;5074530;28;20005;-77
2023/11/04 05:17:33;;;;;;;;;;;8.30;99.90;;;;;;5057693;28;19905;-76
2023/11/04 05:19:59;;;;;;;;;;;8.30;99.90;;;;;;5075561;28;19919;-76
2023/11/04 05:22:24;;;;;;;;;;;8.30;99.90;;;;;;5076106;28;20373;-77
2023/11/04 05:24:51;;;;;;;;;;;8.20;99.90;;;;;;5075644;28;20276;-76
2023/11/04 05:27:16;;;;;;;;;;;8.10;99.90;;;;;;5075726;28;19947;-76
2023/11/04 05:29:42;;;;;;;;;;;8.10;99.90;;;;;;5075209;28;19904;-76
2023/11/04 05:32:08;;;;;;;;;;;8.10;99.90;;;;;;5057682;28;20776;-76
2023/11/04 05:34:33;;;;;;;;;;;8.10;99.90;;;;;;5075906;28;19952;-77
2023/11/04 05:36:59;;;;;;;;;;;8.20;99.90;;;;;;5075641;28;20057;-76
2023/11/04 05:39:25;;;;;;;;;;;8.20;99.90;;;;;;5075398;28;20061;-77
2023/11/04 05:41:52;;;;;;;;;;;8.10;99.90;;;;;;5075438;28;20018;-76
2023/11/04 05:44:17;;;;;;;;;;;8.20;99.90;;;;;;5075684;28;20379;-77
2023/11/04 05:46:46;;;;;;;;;;;8.20;99.90;;;;;;5075285;28;19962;-76
2023/11/04 05:49:11;;;;;;;;;;;8.30;99.90;;;;;;5075845;28;19994;-76
2023/11/04 05:51:37;;;;;;;;;;;8.30;99.90;;;;;;5076285;28;19951;-77
2023/11/04 05:54:02;;;;;;;;;;;8.20;99.90;;;;;;5076709;28;19908;-76
2023/11/04 05:56:28;;;;;;;;;;;8.20;99.90;;;;;;5073837;28;19908;-76
2023/11/04 05:58:53;;;;;;;;;;;8.30;99.90;;;;;;5073397;28;19908;-76
2023/11/04 06:01:23;;;;;;;;;;;8.40;99.90;;;;;;5072948;28;19939;-77
2023/11/04 06:03:49;;;;;;;;;;;8.30;99.90;;;;;;5073202;28;19904;-76
2023/11/04 06:06:17;;;;;;;;;;;8.40;99.90;;;;;;5054686;28;20408;-77
2023/11/04 06:08:42;;;;;;;;;;;8.50;99.90;;;;;;5054889;28;19963;-75
2023/11/04 06:11:08;;;;;;;;;;;8.50;99.90;;;;;;5073389;28;19905;-76
2023/11/04 06:13:34;;;;;;;;;;;8.50;99.90;;;;;;5073437;28;19950;-77
2023/11/04 06:16:00;;;;;;;;;;;8.50;99.90;;;;;;5072649;28;19908;-76
2023/11/04 06:18:25;;;;;;;;;;;8.50;99.90;;;;;;5055150;28;19912;-76
2023/11/04 06:20:51;;;;;;;;;;;8.70;99.90;;;;;;5072889;28;19939;-76
2023/11/04 06:23:16;;;;;;;;;;;8.70;99.90;;;;;;5072880;28;19909;-76
2023/11/04 06:25:42;;;;;;;;;;;8.80;99.90;;;;;;5072371;28;19962;-76
2023/11/04 06:28:07;;;;;;;;;;;8.80;99.90;;;;;;5072547;28;19950;-76
2023/11/04 06:30:33;;;;;;;;;;;8.90;99.90;;;;;;5072013;28;19912;-76
2023/11/04 06:32:59;;;;;;;;;;;9.00;99.90;;;;;;5072785;28;19909;-76
2023/11/04 06:35:25;;;;;;;;;;;9.00;99.90;;;;;;5072991;28;19916;-76
2023/11/04 06:37:52;;;;;;;;;;;9.10;99.90;;;;;;5072718;28;19913;-76
2023/11/04 06:40:17;;;;;;;;;;;9.10;99.90;;;;;;5054870;28;19924;-77
2023/11/04 06:42:43;;;;;;;;;;;9.20;99.90;;;;;;5072953;28;20277;-75
2023/11/04 06:45:09;;;;;;;;;;;9.30;99.90;;;;;;5073383;28;19912;-76
2023/11/04 06:47:36;;;;;;;;;;;9.40;99.90;;;;;;5072579;28;19973;-77
2023/11/04 06:50:03;;;;;;;;;;;9.40;99.90;;;;;;5073236;28;20423;-75
2023/11/04 06:52:30;;;;;;;;;;;9.40;99.90;;;;;;5054895;28;19908;-77
2023/11/04 06:54:56;;;;;;;;;;;9.40;99.90;;;;;;5054890;28;19918;-76
2023/11/04 06:57:21;;;;;;;;;;;9.40;99.90;;;;;;5072974;28;19904;-76
2023/11/04 06:59:47;;;;;;;;;;;9.40;99.90;;;;;;5073292;28;19931;-77
2023/11/04 07:02:12;;;;;;;;;;;9.50;99.90;;;;;;5072739;28;19912;-76
2023/11/04 07:04:38;;;;;;;;;;;9.50;99.90;;;;;;5064949;28;19915;-77
2023/11/04 07:07:03;;;;;;;;;;;9.60;99.90;;;;;;5072984;28;20514;-76
2023/11/04 07:09:34;;;;;;;;;;;9.50;99.90;;;;;;5055301;28;20386;-76
2023/11/04 07:12:00;;;;;;;;;;;9.60;99.90;;;;;;5072839;28;19909;-76
2023/11/04 07:14:25;;;;;;;;;;;9.70;99.90;;;;;;5054556;28;20322;-75
2023/11/04 07:16:51;;;;;;;;;;;9.70;99.90;;;;;;5072746;28;19950;-76
2023/11/04 07:19:17;;;;;;;;;;;9.70;99.90;;;;;;5074834;28;19908;-75
2023/11/04 07:21:42;;;;;;;;;;;9.60;99.90;;;;;;5076142;28;20066;-76
2023/11/04 07:24:11;;;;;;;;;;;9.60;99.90;;;;;;5077110;28;20041;-76
2023/11/04 07:26:37;;;;;;;;;;;9.50;99.90;;;;;;5077142;28;19909;-76
2023/11/04 07:29:03;;;;;;;;;;;9.60;99.90;;;;;;5077496;28;19904;-76
2023/11/04 07:31:31;;;;;;;;;;;9.60;99.90;;;;;;5077035;28;19915;-76
2023/11/04 07:33:57;;;;;;;;;;;9.60;99.90;;;;;;5058763;28;19931;-76
2023/11/04 07:36:24;;;;;;;;;;;9.60;99.90;;;;;;5076973;28;19912;-76
2023/11/04 07:38:51;;;;;;;;;;;9.60;99.90;;;;;;5076579;28;19956;-77
2023/11/04 07:41:16;;;;;;;;;;;9.60;99.90;;;;;;5075553;28;19939;-76
2023/11/04 07:43:42;;;;;;;;;;;9.70;99.90;;;;;;5075679;28;19912;-77
2023/11/04 07:46:07;;;;;;;;;;;9.90;99.90;;;;;;5075733;28;20302;-75
2023/11/04 07:48:33;;;;;;;;;;;9.90;99.90;;;;;;5075239;28;19908;-77
2023/11/04 07:50:58;;;;;;;;;;;10.10;99.90;;;;;;5076001;28;19908;-76
2023/11/04 07:53:24;;;;;;;;;;;10.20;99.90;;;;;;5075125;28;19991;-76
2023/11/04 07:55:50;;;;;;;;;;;10.30;99.90;;;;;;5076686;28;19908;-77
2023/11/04 07:58:16;;;;;;;;;;;10.30;99.90;;;;;;5075492;28;19930;-77
2023/11/04 08:00:43;;;;;;;;;;;10.50;99.90;;;;;;5075764;28;19916;-76
2023/11/04 08:03:08;;;;;;;;;;;10.50;99.90;;;;;;5059995;28;20471;-78
2023/11/04 08:05:36;;;;;;;;;;;10.60;99.90;;;;;;5077605;28;19943;-77
2023/11/04 08:08:02;;;;;;;;;;;10.70;99.90;;;;;;5074986;28;19937;-77
2023/11/04 08:10:27;;;;;;;;;;;10.80;99.90;;;;;;5056670;28;19912;-76
2023/11/04 08:12:53;;;;;;;;;;;10.80;99.90;;;;;;5074869;28;19908;-77
2023/11/04 08:15:18;;;;;;;;;;;10.80;99.90;;;;;;5074344;28;19939;-77
2023/11/04 08:17:44;;;;;;;;;;;10.90;99.90;;;;;;5074203;28;19908;-77
2023/11/04 08:20:11;;;;;;;;;;;10.90;99.90;;;;;;5074655;28;19911;-77
2023/11/04 08:22:38;;;;;;;;;;;11.00;99.90;;;;;;5074771;28;20015;-77
2023/11/04 08:25:06;;;;;;;;;;;11.00;99.90;;;;;;5075058;28;19909;-77
2023/11/04 08:27:31;;;;;;;;;;;11.00;99.90;;;;;;5075115;28;20042;-77
2023/11/04 08:29:57;;;;;;;;;;;10.90;99.90;;;;;;5074620;28;19959;-76
2023/11/04 08:32:22;;;;;;;;;;;10.80;99.90;;;;;;5075053;28;19916;-77
2023/11/04 08:34:48;;;;;;;;;;;10.80;99.90;;;;;;5074915;28;19912;-77
2023/11/04 08:37:13;;;;;;;;;;;10.70;99.90;;;;;;5074907;28;19909;-77
2023/11/04 08:39:41;;;;;;;;;;;10.70;99.90;;;;;;5016953;28;1158022;-77
2023/11/04 08:42:07;;;;;;;;;;;10.60;99.90;;;;;;5057979;28;19924;-77
2023/11/04 08:44:33;;;;;;;;;;;10.70;99.90;;;;;;5057730;28;20306;-77
2023/11/04 08:46:59;;;;;;;;;;;10.60;99.90;;;;;;5075677;28;19908;-77
2023/11/04 08:49:24;;;;;;;;;;;10.60;99.90;;;;;;5075582;28;19912;-77
2023/11/04 08:51:50;;;;;;;;;;;10.60;99.90;;;;;;5075369;28;19972;-77
2023/11/04 08:54:15;;;;;;;;;;;10.50;99.90;;;;;;5075322;28;19908;-77
2023/11/04 08:56:42;;;;;;;;;;;10.50;99.90;;;;;;5075730;28;20013;-77
2023/11/04 08:59:11;;;;;;;;;;;10.50;99.90;;;;;;5057249;28;19931;-77
2023/11/04 09:01:36;;;;;;;;;;;10.50;99.90;;;;;;5075519;28;19916;-77
2023/11/04 09:04:02;;;;;;;;;;;10.60;99.90;;;;;;5057528;28;19911;-76
2023/11/04 09:06:29;;;;;;;;;;;10.60;99.90;;;;;;5075771;28;19915;-77
2023/11/04 09:08:55;;;;;;;;;;;10.60;99.90;;;;;;5075689;28;19909;-77
2023/11/04 09:11:20;;;;;;;;;;;10.70;99.90;;;;;;5075710;28;19930;-77
2023/11/04 09:13:46;;;;;;;;;;;10.80;99.90;;;;;;5075410;28;19909;-77
2023/11/04 09:16:13;;;;;;;;;;;10.80;99.90;;;;;;5076175;28;19911;-76
2023/11/04 09:18:38;;;;;;;;;;;10.90;99.90;;;;;;5075827;28;20359;-77
2023/11/04 09:21:05;;;;;;;;;;;11.00;99.90;;;;;;5076328;28;19963;-77
2023/11/04 09:23:31;;;;;;;;;;;10.90;99.90;;;;;;5075816;28;19911;-77
2023/11/04 09:25:56;;;;;;;;;;;11.10;99.90;;;;;;5075317;28;19904;-77
2023/11/04 09:28:22;;;;;;;;;;;11.20;99.90;;;;;;5058902;28;19915;-77
2023/11/04 09:30:49;;;;;;;;;;;11.20;99.90;;;;;;5076820;28;19908;-77
2023/11/04 09:33:15;;;;;;;;;;;11.30;99.90;;;;;;5076898;28;19904;-77
2023/11/04 09:35:41;;;;;;;;;;;11.30;99.90;;;;;;5075919;28;20054;-78
2023/11/04 09:38:06;;;;;;;;;;;11.30;99.90;;;;;;5057983;28;19908;-77
2023/11/04 09:40:32;;;;;;;;;;;11.30;99.90;;;;;;5058357;28;19922;-77
2023/11/04 09:42:58;;;;;;;;;;;11.30;99.90;;;;;;5075071;28;19958;-77
2023/11/04 09:45:24;;;;;;;;;;;11.30;99.90;;;;;;5075558;28;19915;-77
2023/11/04 09:47:50;;;;;;;;;;;11.30;99.90;;;;;;5076507;28;19911;-78
2023/11/04 09:50:16;;;;;;;;;;;11.20;99.90;;;;;;5057610;28;19904;-77
2023/11/04 09:52:46;;;;;;;;;;;11.20;99.90;;;;;;5075638;28;19904;-77
2023/11/04 09:55:13;;;;;;;;;;;11.30;99.90;;;;;;5075832;28;19948;-78
2023/11/04 09:57:40;;;;;;;;;;;11.40;99.90;;;;;;5076751;28;19915;-76
2023/11/04 10:00:07;;;;;;;;;;;11.60;99.90;;;;;;5075904;28;19908;-77
2023/11/04 10:02:33;;;;;;;;;;;11.70;99.90;;;;;;5076061;28;19974;-77
2023/11/04 10:04:58;;;;;;;;;;;11.90;99.90;;;;;;5058442;28;19957;-77
2023/11/04 10:07:24;;;;;;;;;;;12.00;99.90;;;;;;5076184;28;19905;-78
2023/11/04 10:09:53;;;;;;;;;;;12.00;99.90;;;;;;5076523;28;20445;-77
2023/11/04 10:12:20;;;;;;;;;;;12.20;99.90;;;;;;5058192;28;19904;-77
2023/11/04 10:14:46;;;;;;;;;;;12.40;99.90;;;;;;5060730;28;19904;-77
2023/11/04 10:17:12;;;;;;;;;;;12.50;99.90;;;;;;5077531;28;19904;-77
2023/11/04 10:19:39;;;;;;;;;;;12.50;99.90;;;;;;5074732;28;20013;-77
2023/11/04 10:22:05;;;;;;;;;;;12.60;99.90;;;;;;5074549;28;19916;-76
2023/11/04 10:24:30;;;;;;;;;;;12.50;99.90;;;;;;5057357;28;19915;-77
2023/11/04 10:26:56;;;;;;;;;;;12.50;99.90;;;;;;5074972;28;19951;-77
2023/11/04 10:29:21;;;;;;;;;;;12.40;99.90;;;;;;5057482;28;19951;-77
2023/11/04 10:31:47;;;;;;;;;;;12.50;99.90;;;;;;5056820;28;20291;-77
2023/11/04 10:34:14;;;;;;;;;;;12.50;99.90;;;;;;5075517;28;19910;-77
2023/11/04 10:36:40;;;;;;;;;;;12.50;99.90;;;;;;5075255;28;19932;-77
2023/11/04 10:39:09;;;;;;;;;;;12.40;99.90;;;;;;5074584;28;19924;-77
2023/11/04 10:41:42;;;;;;;;;;;12.30;99.90;;;;;;5056911;28;19916;-77
2023/11/04 10:44:11;;;;;;;;;;;12.30;99.90;;;;;;5075113;28;19908;-77
2023/11/04 10:46:40;;;;;;;;;;;12.20;99.90;;;;;;5056750;28;19909;-77
2023/11/04 10:49:19;;;;;;;;;;;12.30;99.90;;;;;;5075177;28;19956;-77
2023/11/04 10:51:53;;;;;;;;;;;12.20;99.90;;;;;;5075525;28;19927;-77
2023/11/04 10:54:23;;;;;;;;;;;12.20;99.90;;;;;;5075212;28;19908;-77
2023/11/04 10:56:53;;;;;;;;;;;12.20;99.90;;;;;;5074860;28;19904;-77
2023/11/04 10:59:22;;;;;;;;;;;12.20;99.90;;;;;;5074618;28;19904;-77
2023/11/04 11:01:48;;;;;;;;;;;12.20;99.90;;;;;;5074382;28;20027;-77
2023/11/04 11:04:16;;;;;;;;;;;12.30;99.90;;;;;;5074425;28;19909;-77
2023/11/04 11:06:42;;;;;;;;;;;12.30;99.90;;;;;;5074352;28;19904;-76
2023/11/04 11:09:09;;;;;;;;;;;12.30;99.90;;;;;;5074500;28;19911;-77
2023/11/04 11:11:44;;;;;;;;;;;12.30;99.90;;;;;;5056918;28;19905;-77
2023/11/04 11:14:10;;;;;;;;;;;12.40;99.90;;;;;;5073894;28;19930;-76
2023/11/04 11:16:36;;;;;;;;;;;12.30;99.90;;;;;;5074422;28;20615;-77
2023/11/04 11:19:05;;;;;;;;;;;12.30;99.90;;;;;;5057005;28;19904;-77
2023/11/04 11:21:32;;;;;;;;;;;12.30;99.90;;;;;;5074849;28;20304;-77
2023/11/04 11:24:10;;;;;;;;;;;12.40;99.90;;;;;;5073957;28;19908;-76
2023/11/04 11:26:57;;;;;;;;;;;12.50;99.90;;;;;;5056857;28;19912;-77
2023/11/04 11:29:23;;;;;;;;;;;12.60;99.90;;;;;;5075194;28;19905;-77
2023/11/04 11:31:53;;;;;;;;;;;12.70;99.90;;;;;;5075495;28;19908;-77
2023/11/04 11:34:19;;;;;;;;;;;12.70;99.90;;;;;;5075514;28;19943;-77
2023/11/04 11:36:45;;;;;;;;;;;12.70;99.90;;;;;;5074423;28;19908;-77
2023/11/04 11:39:11;;;;;;;;;;;12.70;99.90;;;;;;5075154;28;19986;-77
2023/11/04 11:41:43;;;;;;;;;;;12.70;99.90;;;;;;5075674;28;19908;-77
2023/11/04 11:44:12;;;;;;;;;;;12.70;99.90;;;;;;5057918;28;19908;-76
2023/11/04 11:46:45;;;;;;;;;;;12.70;99.90;;;;;;5057673;28;20395;-77
2023/11/04 11:49:10;;;;;;;;;;;12.60;99.90;;;;;;5075254;28;19994;-77
2023/11/04 11:51:36;;;;;;;;;;;12.60;99.90;;;;;;5058509;28;20372;-77
2023/11/04 11:54:02;;;;;;;;;;;12.70;99.90;;;;;;5040916;28;19915;-77
2023/11/04 11:56:30;;;;;;;;;;;12.60;99.90;;;;;;5075545;28;20335;-77
2023/11/04 11:59:03;;;;;;;;;;;12.60;99.90;;;;;;5076026;28;20007;-77
2023/11/04 12:01:29;;;;;;;;;;;12.60;99.90;;;;;;5057957;28;19913;-78
2023/11/04 12:03:54;;;;;;;;;;;12.50;99.90;;;;;;5076322;28;19954;-78
2023/11/04 12:06:20;;;;;;;;;;;12.50;99.90;;;;;;5078806;28;19971;-78
2023/11/04 12:08:46;;;;;;;;;;;12.60;99.90;;;;;;5079384;28;20405;-77
2023/11/04 12:11:12;;;;;;;;;;;12.60;99.90;;;;;;5079313;28;19954;-78
2023/11/04 12:13:37;;;;;;;;;;;12.60;99.90;;;;;;5080731;28;19908;-77
2023/11/04 12:16:04;;;;;;;;;;;12.60;99.90;;;;;;5080569;28;19912;-77
2023/11/04 12:18:32;;;;;;;;;;;12.60;99.90;;;;;;5078265;28;20003;-77
2023/11/04 12:20:57;;;;;;;;;;;12.60;99.90;;;;;;5080341;28;20375;-77
2023/11/04 12:23:27;;;;;;;;;;;12.60;99.90;;;;;;5063529;28;19979;-77
2023/11/04 12:25:54;;;;;;;;;;;12.60;99.90;;;;;;5066667;28;19908;-78
2023/11/04 12:28:19;;;;;;;;;;;12.60;99.90;;;;;;5063458;28;19908;-76
2023/11/04 12:30:45;;;;;;;;;;;12.60;99.90;;;;;;5061702;28;19908;-78
2023/11/04 12:33:11;;;;;;;;;;;12.60;99.90;;;;;;5079076;28;20376;-77
2023/11/04 12:35:36;;;;;;;;;;;12.60;99.90;;;;;;5079755;28;20418;-78
2023/11/04 12:38:05;;;;;;;;;;;12.60;99.90;;;;;;5080131;28;20054;-78
2023/11/04 12:40:30;;;;;;;;;;;12.60;99.90;;;;;;5079764;28;19916;-78
2023/11/04 12:43:01;;;;;;;;;;;12.60;99.90;;;;;;5078815;28;20065;-78
2023/11/04 12:45:27;;;;;;;;;;;12.50;99.90;;;;;;5061096;28;19939;-77
2023/11/04 12:47:52;;;;;;;;;;;12.40;99.90;;;;;;5079726;28;19905;-77
2023/11/04 12:50:19;;;;;;;;;;;12.30;99.90;;;;;;5062065;28;20003;-78
2023/11/04 12:52:46;;;;;;;;;;;12.30;99.90;;;;;;5080831;28;19908;-77
2023/11/04 12:55:11;;;;;;;;;;;12.30;99.90;;;;;;5061743;28;19930;-77
2023/11/04 12:57:39;;;;;;;;;;;12.40;99.90;;;;;;5079671;28;20385;-77
2023/11/04 13:00:06;;;;;;;;;;;12.60;99.90;;;;;;5079829;28;19916;-78
2023/11/04 13:02:32;;;;;;;;;;;12.60;99.90;;;;;;5079977;28;19930;-77
2023/11/04 13:04:59;;;;;;;;;;;12.70;99.90;;;;;;5079192;28;19999;-78
2023/11/04 13:07:25;;;;;;;;;;;12.80;99.90;;;;;;5061361;28;19958;-77
2023/11/04 13:09:50;;;;;;;;;;;12.80;99.90;;;;;;5079534;28;20334;-78
2023/11/04 13:12:17;;;;;;;;;;;12.90;99.90;;;;;;5079178;28;19908;-76
2023/11/04 13:14:43;;;;;;;;;;;12.90;99.90;;;;;;5078992;28;19920;-77
2023/11/04 13:17:08;;;;;;;;;;;13.00;99.90;;;;;;5060439;28;19905;-78
2023/11/04 13:19:34;;;;;;;;;;;13.00;99.90;;;;;;5060258;28;20262;-77
2023/11/04 13:22:00;;;;;;;;;;;13.00;99.90;;;;;;5078013;28;19948;-77
2023/11/04 13:24:25;;;;;;;;;;;13.00;99.90;;;;;;5079999;28;19955;-78
2023/11/04 13:26:51;;;;;;;;;;;13.00;99.90;;;;;;5062239;28;19930;-78
2023/11/04 13:29:16;;;;;;;;;;;13.00;99.90;;;;;;5079508;28;19904;-78
2023/11/04 13:31:42;;;;;;;;;;;12.90;99.90;;;;;;5079413;28;19909;-77
2023/11/04 13:34:09;;;;;;;;;;;12.90;99.90;;;;;;5061971;28;19930;-78
2023/11/04 13:36:37;;;;;;;;;;;13.00;99.90;;;;;;5061578;28;19904;-77
2023/11/04 13:39:06;;;;;;;;;;;13.00;99.90;;;;;;5079134;28;19917;-77
2023/11/04 13:41:32;;;;;;;;;;;13.00;99.90;;;;;;5079310;28;19958;-77
2023/11/04 13:43:57;;;;;;;;;;;13.00;99.90;;;;;;5079406;28;19909;-78
2023/11/04 13:46:23;;;;;;;;;;;12.90;99.90;;;;;;5078667;28;19958;-78
2023/11/04 13:48:49;;;;;;;;;;;13.00;99.90;;;;;;5078662;28;19909;-78
2023/11/04 13:51:15;;;;;;;;;;;12.90;99.90;;;;;;5060878;28;20616;-77
2023/11/04 13:53:41;;;;;;;;;;;12.90;99.90;;;;;;5060698;28;19909;-77
2023/11/04 13:56:07;;;;;;;;;;;12.90;99.90;;;;;;5060338;28;19947;-78
2023/11/04 13:58:32;;;;;;;;;;;12.80;99.90;;;;;;5078572;28;20031;-77
2023/11/04 14:00:59;;;;;;;;;;;12.80;99.90;;;;;;5061388;28;19919;-77
2023/11/04 14:03:26;;;;;;;;;;;12.70;99.90;;;;;;5079046;28;19912;-79
2023/11/04 14:05:52;;;;;;;;;;;12.70;99.90;;;;;;5078640;28;19912;-77
2023/11/04 14:08:17;;;;;;;;;;;12.60;99.90;;;;;;5079685;28;19926;-78
2023/11/04 14:10:44;;;;;;;;;;;12.60;99.90;;;;;;5060791;28;19982;-78
2023/11/04 14:13:11;;;;;;;;;;;12.60;99.90;;;;;;5061343;28;19995;-77
2023/11/04 14:15:37;;;;;;;;;;;12.50;99.90;;;;;;5079057;28;19910;-77
2023/11/04 14:18:04;;;;;;;;;;;12.40;99.90;;;;;;5060700;28;19943;-78